sensor_id;sensor_type;location;lat;lon;timestamp;P1;durP1;ratioP1;P2;durP2;ratioP2
32152;SDS011;18656;50.580;11.392;2022-08-19T00:01:22;44.00;;;30.98;;
32152;SDS011;18656;50.580;11.392;2022-08-19T00:03:59;49.88;;;34.45;;
32152;SDS011;18656;50.580;11.392;2022-08-19T00:06:41;47.55;;;34.65;;
32152;SDS011;18656;50.580;11.392;2022-08-19T00:09:10;51.33;;;33.00;;
32152;SDS011;18656;50.580;11.392;2022-08-19T00:11:38;41.58;;;30.52;;
32152;SDS011;18656;50.580;11.392;2022-08-19T00:14:07;40.20;;;31.75;;
32152;SDS011;18656;50.580;11.392;2022-08-19T00:16:38;43.72;;;31.65;;
32152;SDS011;18656;50.580;11.392;2022-08-19T00:19:07;43.25;;;32.03;;
32152;SDS011;18656;50.580;11.392;2022-08-19T00:21:35;40.92;;;33.20;;
32152;SDS011;18656;50.580;11.392;2022-08-19T00:24:06;44.13;;;32.60;;
32152;SDS011;18656;50.580;11.392;2022-08-19T00:26:34;61.70;;;38.10;;
32152;SDS011;18656;50.580;11.392;2022-08-19T00:29:02;43.80;;;32.15;;
32152;SDS011;18656;50.580;11.392;2022-08-19T00:31:30;46.53;;;34.28;;
32152;SDS011;18656;50.580;11.392;2022-08-19T00:33:57;52.72;;;35.67;;
32152;SDS011;18656;50.580;11.392;2022-08-19T00:36:25;61.70;;;37.42;;
32152;SDS011;18656;50.580;11.392;2022-08-19T00:38:52;47.92;;;33.17;;
32152;SDS011;18656;50.580;11.392;2022-08-19T00:41:20;43.13;;;32.30;;
32152;SDS011;18656;50.580;11.392;2022-08-19T00:46:32;46.20;;;32.70;;
32152;SDS011;18656;50.580;11.392;2022-08-19T00:49:00;40.05;;;30.35;;
32152;SDS011;18656;50.580;11.392;2022-08-19T00:51:28;47.58;;;34.45;;
32152;SDS011;18656;50.580;11.392;2022-08-19T00:53:58;49.72;;;33.92;;
32152;SDS011;18656;50.580;11.392;2022-08-19T00:56:26;61.92;;;37.40;;
32152;SDS011;18656;50.580;11.392;2022-08-19T00:58:54;41.88;;;31.92;;
32152;SDS011;18656;50.580;11.392;2022-08-19T01:01:22;74.25;;;40.92;;
32152;SDS011;18656;50.580;11.392;2022-08-19T01:03:50;45.30;;;32.70;;
32152;SDS011;18656;50.580;11.392;2022-08-19T01:08:51;41.53;;;31.95;;
32152;SDS011;18656;50.580;11.392;2022-08-19T01:11:18;62.00;;;39.10;;
32152;SDS011;18656;50.580;11.392;2022-08-19T01:13:45;54.97;;;35.85;;
32152;SDS011;18656;50.580;11.392;2022-08-19T01:16:15;68.18;;;39.50;;
32152;SDS011;18656;50.580;11.392;2022-08-19T01:18:43;44.80;;;34.38;;
32152;SDS011;18656;50.580;11.392;2022-08-19T01:21:12;53.38;;;37.50;;
32152;SDS011;18656;50.580;11.392;2022-08-19T01:23:43;66.97;;;41.90;;
32152;SDS011;18656;50.580;11.392;2022-08-19T01:26:15;64.53;;;42.15;;
32152;SDS011;18656;50.580;11.392;2022-08-19T01:28:45;60.20;;;40.00;;
32152;SDS011;18656;50.580;11.392;2022-08-19T01:31:16;65.50;;;40.95;;
32152;SDS011;18656;50.580;11.392;2022-08-19T01:33:53;67.80;;;42.75;;
32152;SDS011;18656;50.580;11.392;2022-08-19T01:36:31;65.57;;;42.33;;
32152;SDS011;18656;50.580;11.392;2022-08-19T01:39:00;63.58;;;41.78;;
32152;SDS011;18656;50.580;11.392;2022-08-19T01:41:28;65.35;;;41.00;;
32152;SDS011;18656;50.580;11.392;2022-08-19T01:43:55;55.90;;;39.72;;
32152;SDS011;18656;50.580;11.392;2022-08-19T01:46:43;55.95;;;38.90;;
32152;SDS011;18656;50.580;11.392;2022-08-19T01:49:10;57.85;;;39.03;;
32152;SDS011;18656;50.580;11.392;2022-08-19T01:51:38;53.85;;;38.90;;
32152;SDS011;18656;50.580;11.392;2022-08-19T01:54:09;53.90;;;38.42;;
32152;SDS011;18656;50.580;11.392;2022-08-19T01:56:37;58.95;;;39.85;;
32152;SDS011;18656;50.580;11.392;2022-08-19T01:59:08;56.38;;;37.08;;
32152;SDS011;18656;50.580;11.392;2022-08-19T02:01:37;59.55;;;39.20;;
32152;SDS011;18656;50.580;11.392;2022-08-19T02:04:04;52.75;;;37.63;;
32152;SDS011;18656;50.580;11.392;2022-08-19T02:06:32;65.15;;;40.15;;
32152;SDS011;18656;50.580;11.392;2022-08-19T02:08:59;50.38;;;36.50;;
32152;SDS011;18656;50.580;11.392;2022-08-19T02:11:30;58.97;;;39.50;;
32152;SDS011;18656;50.580;11.392;2022-08-19T02:14:00;78.80;;;43.40;;
32152;SDS011;18656;50.580;11.392;2022-08-19T02:16:30;59.13;;;38.20;;
32152;SDS011;18656;50.580;11.392;2022-08-19T02:18:58;72.15;;;41.38;;
32152;SDS011;18656;50.580;11.392;2022-08-19T02:21:29;62.08;;;38.75;;
32152;SDS011;18656;50.580;11.392;2022-08-19T02:23:56;74.70;;;43.97;;
32152;SDS011;18656;50.580;11.392;2022-08-19T02:26:24;71.80;;;42.88;;
32152;SDS011;18656;50.580;11.392;2022-08-19T02:28:53;60.60;;;39.38;;
32152;SDS011;18656;50.580;11.392;2022-08-19T02:31:21;60.10;;;38.05;;
32152;SDS011;18656;50.580;11.392;2022-08-19T02:33:50;70.35;;;40.40;;
32152;SDS011;18656;50.580;11.392;2022-08-19T02:36:21;51.35;;;34.38;;
32152;SDS011;18656;50.580;11.392;2022-08-19T02:38:50;54.22;;;37.70;;
32152;SDS011;18656;50.580;11.392;2022-08-19T02:41:22;58.60;;;39.78;;
32152;SDS011;18656;50.580;11.392;2022-08-19T02:43:52;49.13;;;35.10;;
32152;SDS011;18656;50.580;11.392;2022-08-19T02:46:40;50.33;;;34.28;;
32152;SDS011;18656;50.580;11.392;2022-08-19T02:49:07;51.95;;;35.83;;
32152;SDS011;18656;50.580;11.392;2022-08-19T02:51:36;50.28;;;35.28;;
32152;SDS011;18656;50.580;11.392;2022-08-19T02:54:04;55.38;;;38.25;;
32152;SDS011;18656;50.580;11.392;2022-08-19T02:56:33;52.88;;;35.97;;
32152;SDS011;18656;50.580;11.392;2022-08-19T02:59:01;52.33;;;35.60;;
32152;SDS011;18656;50.580;11.392;2022-08-19T03:01:30;64.53;;;37.47;;
32152;SDS011;18656;50.580;11.392;2022-08-19T03:03:59;44.17;;;31.65;;
32152;SDS011;18656;50.580;11.392;2022-08-19T03:06:28;45.28;;;32.47;;
32152;SDS011;18656;50.580;11.392;2022-08-19T03:08:55;54.25;;;34.72;;
32152;SDS011;18656;50.580;11.392;2022-08-19T03:11:27;41.90;;;31.10;;
32152;SDS011;18656;50.580;11.392;2022-08-19T03:13:58;47.45;;;32.20;;
32152;SDS011;18656;50.580;11.392;2022-08-19T03:16:41;59.63;;;37.30;;
32152;SDS011;18656;50.580;11.392;2022-08-19T03:19:09;53.83;;;34.30;;
32152;SDS011;18656;50.580;11.392;2022-08-19T03:21:36;50.58;;;34.67;;
32152;SDS011;18656;50.580;11.392;2022-08-19T03:24:05;40.45;;;31.80;;
32152;SDS011;18656;50.580;11.392;2022-08-19T03:26:39;38.40;;;30.20;;
32152;SDS011;18656;50.580;11.392;2022-08-19T03:29:10;40.42;;;31.50;;
32152;SDS011;18656;50.580;11.392;2022-08-19T03:31:41;50.15;;;32.58;;
32152;SDS011;18656;50.580;11.392;2022-08-19T03:34:22;42.22;;;31.73;;
32152;SDS011;18656;50.580;11.392;2022-08-19T03:36:56;51.30;;;32.88;;
32152;SDS011;18656;50.580;11.392;2022-08-19T03:39:24;63.30;;;36.97;;
32152;SDS011;18656;50.580;11.392;2022-08-19T03:41:52;59.55;;;36.53;;
32152;SDS011;18656;50.580;11.392;2022-08-19T03:44:43;45.83;;;32.55;;
32152;SDS011;18656;50.580;11.392;2022-08-19T03:47:11;43.42;;;31.63;;
32152;SDS011;18656;50.580;11.392;2022-08-19T03:49:42;37.35;;;29.58;;
32152;SDS011;18656;50.580;11.392;2022-08-19T03:52:10;63.38;;;38.22;;
32152;SDS011;18656;50.580;11.392;2022-08-19T03:54:38;46.78;;;33.60;;
32152;SDS011;18656;50.580;11.392;2022-08-19T03:57:05;48.22;;;34.17;;
32152;SDS011;18656;50.580;11.392;2022-08-19T03:59:34;39.67;;;29.75;;
32152;SDS011;18656;50.580;11.392;2022-08-19T04:02:05;56.17;;;36.75;;
32152;SDS011;18656;50.580;11.392;2022-08-19T04:04:36;56.28;;;36.47;;
32152;SDS011;18656;50.580;11.392;2022-08-19T04:07:04;54.22;;;38.85;;
32152;SDS011;18656;50.580;11.392;2022-08-19T04:09:32;51.40;;;33.72;;
32152;SDS011;18656;50.580;11.392;2022-08-19T04:12:00;41.15;;;30.63;;
32152;SDS011;18656;50.580;11.392;2022-08-19T04:14:28;42.40;;;30.98;;
32152;SDS011;18656;50.580;11.392;2022-08-19T04:16:57;38.08;;;29.38;;
32152;SDS011;18656;50.580;11.392;2022-08-19T04:19:25;37.00;;;30.58;;
32152;SDS011;18656;50.580;11.392;2022-08-19T04:21:53;43.25;;;32.03;;
32152;SDS011;18656;50.580;11.392;2022-08-19T04:24:21;44.25;;;32.15;;
32152;SDS011;18656;50.580;11.392;2022-08-19T04:26:49;41.75;;;30.90;;
32152;SDS011;18656;50.580;11.392;2022-08-19T04:29:25;39.22;;;31.17;;
32152;SDS011;18656;50.580;11.392;2022-08-19T04:31:53;49.40;;;34.83;;
32152;SDS011;18656;50.580;11.392;2022-08-19T04:34:22;41.28;;;32.42;;
32152;SDS011;18656;50.580;11.392;2022-08-19T04:36:51;42.53;;;31.60;;
32152;SDS011;18656;50.580;11.392;2022-08-19T04:39:20;45.03;;;31.33;;
32152;SDS011;18656;50.580;11.392;2022-08-19T04:41:48;44.97;;;32.30;;
32152;SDS011;18656;50.580;11.392;2022-08-19T04:44:34;43.92;;;32.28;;
32152;SDS011;18656;50.580;11.392;2022-08-19T04:47:11;43.65;;;31.80;;
32152;SDS011;18656;50.580;11.392;2022-08-19T04:49:39;60.30;;;38.15;;
32152;SDS011;18656;50.580;11.392;2022-08-19T04:52:07;46.72;;;33.40;;
32152;SDS011;18656;50.580;11.392;2022-08-19T04:54:34;42.33;;;33.47;;
32152;SDS011;18656;50.580;11.392;2022-08-19T04:57:04;42.75;;;32.83;;
32152;SDS011;18656;50.580;11.392;2022-08-19T04:59:33;44.95;;;32.70;;
32152;SDS011;18656;50.580;11.392;2022-08-19T05:02:00;48.17;;;34.50;;
32152;SDS011;18656;50.580;11.392;2022-08-19T05:04:28;40.22;;;31.88;;
32152;SDS011;18656;50.580;11.392;2022-08-19T05:06:58;42.45;;;31.52;;
32152;SDS011;18656;50.580;11.392;2022-08-19T05:09:28;46.88;;;33.00;;
32152;SDS011;18656;50.580;11.392;2022-08-19T05:12:15;43.65;;;32.53;;
32152;SDS011;18656;50.580;11.392;2022-08-19T05:14:43;49.10;;;34.63;;
32152;SDS011;18656;50.580;11.392;2022-08-19T05:17:11;40.38;;;31.05;;
32152;SDS011;18656;50.580;11.392;2022-08-19T05:19:59;43.10;;;32.08;;
32152;SDS011;18656;50.580;11.392;2022-08-19T05:22:45;34.60;;;29.20;;
32152;SDS011;18656;50.580;11.392;2022-08-19T05:25:16;41.85;;;33.05;;
32152;SDS011;18656;50.580;11.392;2022-08-19T05:27:45;56.90;;;36.63;;
32152;SDS011;18656;50.580;11.392;2022-08-19T05:30:13;47.50;;;33.22;;
32152;SDS011;18656;50.580;11.392;2022-08-19T05:32:40;43.63;;;32.53;;
32152;SDS011;18656;50.580;11.392;2022-08-19T05:35:07;43.05;;;31.35;;
32152;SDS011;18656;50.580;11.392;2022-08-19T05:37:35;42.08;;;33.70;;
32152;SDS011;18656;50.580;11.392;2022-08-19T05:40:03;48.45;;;34.10;;
32152;SDS011;18656;50.580;11.392;2022-08-19T05:42:30;44.17;;;32.47;;
32152;SDS011;18656;50.580;11.392;2022-08-19T05:44:57;43.50;;;32.92;;
32152;SDS011;18656;50.580;11.392;2022-08-19T05:47:24;51.35;;;33.92;;
32152;SDS011;18656;50.580;11.392;2022-08-19T05:49:51;64.85;;;40.33;;
32152;SDS011;18656;50.580;11.392;2022-08-19T05:52:19;47.60;;;33.70;;
32152;SDS011;18656;50.580;11.392;2022-08-19T05:54:50;39.92;;;30.80;;
32152;SDS011;18656;50.580;11.392;2022-08-19T05:57:18;43.33;;;31.10;;
32152;SDS011;18656;50.580;11.392;2022-08-19T05:59:45;56.67;;;34.63;;
32152;SDS011;18656;50.580;11.392;2022-08-19T06:02:22;41.50;;;32.40;;
32152;SDS011;18656;50.580;11.392;2022-08-19T06:04:51;45.85;;;33.17;;
32152;SDS011;18656;50.580;11.392;2022-08-19T06:07:18;44.55;;;33.95;;
32152;SDS011;18656;50.580;11.392;2022-08-19T06:09:45;61.70;;;33.88;;
32152;SDS011;18656;50.580;11.392;2022-08-19T06:12:26;40.03;;;31.25;;
32152;SDS011;18656;50.580;11.392;2022-08-19T06:14:58;44.60;;;31.65;;
32152;SDS011;18656;50.580;11.392;2022-08-19T06:17:27;40.78;;;32.28;;
32152;SDS011;18656;50.580;11.392;2022-08-19T06:19:56;46.17;;;33.22;;
32152;SDS011;18656;50.580;11.392;2022-08-19T06:22:24;49.42;;;33.78;;
32152;SDS011;18656;50.580;11.392;2022-08-19T06:24:52;39.30;;;31.65;;
32152;SDS011;18656;50.580;11.392;2022-08-19T06:27:20;41.15;;;31.02;;
32152;SDS011;18656;50.580;11.392;2022-08-19T06:29:47;36.70;;;28.40;;
32152;SDS011;18656;50.580;11.392;2022-08-19T06:32:15;55.92;;;33.70;;
32152;SDS011;18656;50.580;11.392;2022-08-19T06:34:43;42.95;;;30.85;;
32152;SDS011;18656;50.580;11.392;2022-08-19T06:37:10;70.53;;;37.45;;
32152;SDS011;18656;50.580;11.392;2022-08-19T06:39:39;56.67;;;32.78;;
32152;SDS011;18656;50.580;11.392;2022-08-19T06:42:06;43.42;;;34.05;;
32152;SDS011;18656;50.580;11.392;2022-08-19T06:44:39;42.88;;;33.47;;
32152;SDS011;18656;50.580;11.392;2022-08-19T06:47:09;47.33;;;33.72;;
32152;SDS011;18656;50.580;11.392;2022-08-19T06:49:48;45.55;;;32.67;;
32152;SDS011;18656;50.580;11.392;2022-08-19T06:52:15;43.20;;;32.65;;
32152;SDS011;18656;50.580;11.392;2022-08-19T06:54:42;43.10;;;33.08;;
32152;SDS011;18656;50.580;11.392;2022-08-19T06:57:22;44.75;;;33.55;;
32152;SDS011;18656;50.580;11.392;2022-08-19T06:59:50;41.13;;;32.65;;
32152;SDS011;18656;50.580;11.392;2022-08-19T07:02:17;48.90;;;36.53;;
32152;SDS011;18656;50.580;11.392;2022-08-19T07:04:45;50.22;;;35.72;;
32152;SDS011;18656;50.580;11.392;2022-08-19T07:07:13;50.17;;;35.00;;
32152;SDS011;18656;50.580;11.392;2022-08-19T07:09:46;55.63;;;39.15;;
32152;SDS011;18656;50.580;11.392;2022-08-19T07:12:27;56.30;;;37.35;;
32152;SDS011;18656;50.580;11.392;2022-08-19T07:14:56;50.90;;;35.85;;
32152;SDS011;18656;50.580;11.392;2022-08-19T07:17:24;56.92;;;39.63;;
32152;SDS011;18656;50.580;11.392;2022-08-19T07:19:51;52.65;;;37.15;;
32152;SDS011;18656;50.580;11.392;2022-08-19T07:22:20;49.80;;;35.75;;
32152;SDS011;18656;50.580;11.392;2022-08-19T07:24:49;42.38;;;34.22;;
32152;SDS011;18656;50.580;11.392;2022-08-19T07:27:17;45.42;;;34.78;;
32152;SDS011;18656;50.580;11.392;2022-08-19T07:29:51;46.90;;;34.45;;
32152;SDS011;18656;50.580;11.392;2022-08-19T07:32:23;43.97;;;34.40;;
32152;SDS011;18656;50.580;11.392;2022-08-19T07:34:52;41.88;;;34.22;;
32152;SDS011;18656;50.580;11.392;2022-08-19T07:37:21;38.58;;;31.63;;
32152;SDS011;18656;50.580;11.392;2022-08-19T07:39:48;40.78;;;32.97;;
32152;SDS011;18656;50.580;11.392;2022-08-19T07:42:16;40.67;;;32.92;;
32152;SDS011;18656;50.580;11.392;2022-08-19T07:44:44;48.80;;;35.45;;
32152;SDS011;18656;50.580;11.392;2022-08-19T07:47:15;46.88;;;35.92;;
32152;SDS011;18656;50.580;11.392;2022-08-19T07:50:05;41.35;;;35.60;;
32152;SDS011;18656;50.580;11.392;2022-08-19T07:52:33;45.90;;;35.40;;
32152;SDS011;18656;50.580;11.392;2022-08-19T07:55:02;41.75;;;33.83;;
32152;SDS011;18656;50.580;11.392;2022-08-19T07:57:30;47.53;;;37.47;;
32152;SDS011;18656;50.580;11.392;2022-08-19T07:59:57;60.38;;;40.05;;
32152;SDS011;18656;50.580;11.392;2022-08-19T08:02:24;64.85;;;42.38;;
32152;SDS011;18656;50.580;11.392;2022-08-19T08:04:51;56.15;;;40.03;;
32152;SDS011;18656;50.580;11.392;2022-08-19T08:07:38;55.80;;;39.92;;
32152;SDS011;18656;50.580;11.392;2022-08-19T08:10:24;53.95;;;40.28;;
32152;SDS011;18656;50.580;11.392;2022-08-19T08:12:52;62.75;;;41.15;;
32152;SDS011;18656;50.580;11.392;2022-08-19T08:15:35;55.75;;;38.40;;
32152;SDS011;18656;50.580;11.392;2022-08-19T08:20:35;65.15;;;44.25;;
32152;SDS011;18656;50.580;11.392;2022-08-19T08:23:02;61.65;;;42.13;;
32152;SDS011;18656;50.580;11.392;2022-08-19T08:25:48;56.22;;;42.35;;
32152;SDS011;18656;50.580;11.392;2022-08-19T08:28:16;70.72;;;48.55;;
32152;SDS011;18656;50.580;11.392;2022-08-19T08:30:43;63.22;;;43.38;;
32152;SDS011;18656;50.580;11.392;2022-08-19T08:33:12;68.95;;;46.65;;
32152;SDS011;18656;50.580;11.392;2022-08-19T08:35:40;61.28;;;44.55;;
32152;SDS011;18656;50.580;11.392;2022-08-19T08:38:08;62.55;;;44.50;;
32152;SDS011;18656;50.580;11.392;2022-08-19T08:43:19;64.38;;;42.95;;
32152;SDS011;18656;50.580;11.392;2022-08-19T08:45:50;54.58;;;42.05;;
32152;SDS011;18656;50.580;11.392;2022-08-19T08:48:39;57.22;;;42.30;;
32152;SDS011;18656;50.580;11.392;2022-08-19T08:51:12;55.10;;;42.05;;
32152;SDS011;18656;50.580;11.392;2022-08-19T08:53:45;50.03;;;40.25;;
32152;SDS011;18656;50.580;11.392;2022-08-19T08:56:13;62.25;;;42.53;;
32152;SDS011;18656;50.580;11.392;2022-08-19T09:01:10;56.75;;;40.15;;
32152;SDS011;18656;50.580;11.392;2022-08-19T09:03:39;53.17;;;40.70;;
32152;SDS011;18656;50.580;11.392;2022-08-19T09:06:23;45.90;;;37.78;;
32152;SDS011;18656;50.580;11.392;2022-08-19T09:09:02;43.78;;;35.83;;
32152;SDS011;18656;50.580;11.392;2022-08-19T09:11:41;56.78;;;41.35;;
32152;SDS011;18656;50.580;11.392;2022-08-19T09:16:58;34.58;;;28.05;;
32152;SDS011;18656;50.580;11.392;2022-08-19T09:19:26;33.63;;;25.58;;
32152;SDS011;18656;50.580;11.392;2022-08-19T09:21:54;44.88;;;28.95;;
32152;SDS011;18656;50.580;11.392;2022-08-19T09:24:22;41.05;;;31.23;;
32152;SDS011;18656;50.580;11.392;2022-08-19T09:26:56;39.50;;;31.02;;
32152;SDS011;18656;50.580;11.392;2022-08-19T09:29:23;43.33;;;33.33;;
32152;SDS011;18656;50.580;11.392;2022-08-19T09:31:50;39.90;;;32.58;;
32152;SDS011;18656;50.580;11.392;2022-08-19T09:34:18;44.53;;;33.78;;
32152;SDS011;18656;50.580;11.392;2022-08-19T09:36:47;41.90;;;32.10;;
32152;SDS011;18656;50.580;11.392;2022-08-19T09:39:20;34.17;;;29.35;;
32152;SDS011;18656;50.580;11.392;2022-08-19T09:41:47;26.83;;;22.95;;
32152;SDS011;18656;50.580;11.392;2022-08-19T09:44:16;25.27;;;20.67;;
32152;SDS011;18656;50.580;11.392;2022-08-19T09:46:44;20.33;;;18.25;;
32152;SDS011;18656;50.580;11.392;2022-08-19T09:49:13;19.58;;;16.33;;
32152;SDS011;18656;50.580;11.392;2022-08-19T09:51:40;23.02;;;16.58;;
32152;SDS011;18656;50.580;11.392;2022-08-19T09:54:08;19.15;;;16.15;;
32152;SDS011;18656;50.580;11.392;2022-08-19T09:56:36;29.25;;;20.50;;
32152;SDS011;18656;50.580;11.392;2022-08-19T09:59:07;28.35;;;22.27;;
32152;SDS011;18656;50.580;11.392;2022-08-19T10:01:35;35.28;;;26.35;;
32152;SDS011;18656;50.580;11.392;2022-08-19T10:04:02;26.58;;;22.95;;
32152;SDS011;18656;50.580;11.392;2022-08-19T10:06:45;25.40;;;22.58;;
32152;SDS011;18656;50.580;11.392;2022-08-19T10:09:18;26.77;;;22.73;;
32152;SDS011;18656;50.580;11.392;2022-08-19T10:11:59;27.35;;;21.77;;
32152;SDS011;18656;50.580;11.392;2022-08-19T10:14:27;38.47;;;23.63;;
32152;SDS011;18656;50.580;11.392;2022-08-19T10:16:54;33.60;;;21.85;;
32152;SDS011;18656;50.580;11.392;2022-08-19T10:19:24;25.38;;;19.30;;
32152;SDS011;18656;50.580;11.392;2022-08-19T10:21:52;26.10;;;20.38;;
32152;SDS011;18656;50.580;11.392;2022-08-19T10:24:20;31.15;;;21.55;;
32152;SDS011;18656;50.580;11.392;2022-08-19T10:26:50;28.10;;;21.58;;
32152;SDS011;18656;50.580;11.392;2022-08-19T10:29:24;25.45;;;19.67;;
32152;SDS011;18656;50.580;11.392;2022-08-19T10:32:01;26.67;;;20.25;;
32152;SDS011;18656;50.580;11.392;2022-08-19T10:34:29;20.95;;;18.10;;
32152;SDS011;18656;50.580;11.392;2022-08-19T10:36:56;25.40;;;19.60;;
32152;SDS011;18656;50.580;11.392;2022-08-19T10:39:27;31.02;;;22.35;;
32152;SDS011;18656;50.580;11.392;2022-08-19T10:41:56;24.75;;;20.63;;
32152;SDS011;18656;50.580;11.392;2022-08-19T10:44:23;23.05;;;20.40;;
32152;SDS011;18656;50.580;11.392;2022-08-19T10:46:57;28.70;;;21.58;;
32152;SDS011;18656;50.580;11.392;2022-08-19T10:49:25;25.17;;;21.77;;
32152;SDS011;18656;50.580;11.392;2022-08-19T10:51:53;23.35;;;20.88;;
32152;SDS011;18656;50.580;11.392;2022-08-19T10:54:47;32.00;;;22.98;;
32152;SDS011;18656;50.580;11.392;2022-08-19T10:57:33;22.95;;;19.00;;
32152;SDS011;18656;50.580;11.392;2022-08-19T11:00:21;26.70;;;19.17;;
32152;SDS011;18656;50.580;11.392;2022-08-19T11:02:49;22.45;;;19.20;;
32152;SDS011;18656;50.580;11.392;2022-08-19T11:05:16;17.50;;;15.80;;
32152;SDS011;18656;50.580;11.392;2022-08-19T11:07:43;18.88;;;15.60;;
32152;SDS011;18656;50.580;11.392;2022-08-19T11:10:11;17.65;;;14.90;;
32152;SDS011;18656;50.580;11.392;2022-08-19T11:12:46;19.02;;;16.02;;
32152;SDS011;18656;50.580;11.392;2022-08-19T11:15:13;14.07;;;12.70;;
32152;SDS011;18656;50.580;11.392;2022-08-19T11:17:40;17.75;;;14.73;;
32152;SDS011;18656;50.580;11.392;2022-08-19T11:20:13;17.65;;;11.85;;
32152;SDS011;18656;50.580;11.392;2022-08-19T11:22:40;15.02;;;10.70;;
32152;SDS011;18656;50.580;11.392;2022-08-19T11:25:09;12.00;;;10.80;;
32152;SDS011;18656;50.580;11.392;2022-08-19T11:27:38;10.23;;;8.88;;
32152;SDS011;18656;50.580;11.392;2022-08-19T11:30:08;14.32;;;10.75;;
32152;SDS011;18656;50.580;11.392;2022-08-19T11:32:38;11.50;;;9.80;;
32152;SDS011;18656;50.580;11.392;2022-08-19T11:35:10;13.07;;;9.43;;
32152;SDS011;18656;50.580;11.392;2022-08-19T11:37:38;10.65;;;9.70;;
32152;SDS011;18656;50.580;11.392;2022-08-19T11:40:05;9.73;;;8.82;;
32152;SDS011;18656;50.580;11.392;2022-08-19T11:42:33;7.90;;;7.28;;
32152;SDS011;18656;50.580;11.392;2022-08-19T11:45:19;6.43;;;5.90;;
32152;SDS011;18656;50.580;11.392;2022-08-19T11:47:46;5.22;;;4.82;;
32152;SDS011;18656;50.580;11.392;2022-08-19T11:50:14;8.05;;;5.45;;
32152;SDS011;18656;50.580;11.392;2022-08-19T11:52:42;4.60;;;4.18;;
32152;SDS011;18656;50.580;11.392;2022-08-19T11:55:10;4.70;;;4.30;;
32152;SDS011;18656;50.580;11.392;2022-08-19T11:57:38;6.95;;;4.50;;
32152;SDS011;18656;50.580;11.392;2022-08-19T12:00:07;11.05;;;5.38;;
32152;SDS011;18656;50.580;11.392;2022-08-19T12:02:34;7.63;;;4.40;;
32152;SDS011;18656;50.580;11.392;2022-08-19T12:05:02;9.18;;;5.82;;
32152;SDS011;18656;50.580;11.392;2022-08-19T12:07:31;12.18;;;8.30;;
32152;SDS011;18656;50.580;11.392;2022-08-19T12:09:59;9.85;;;8.18;;
32152;SDS011;18656;50.580;11.392;2022-08-19T12:12:28;6.78;;;6.28;;
32152;SDS011;18656;50.580;11.392;2022-08-19T12:14:55;6.95;;;6.35;;
32152;SDS011;18656;50.580;11.392;2022-08-19T12:17:27;5.53;;;5.10;;
32152;SDS011;18656;50.580;11.392;2022-08-19T12:19:54;4.30;;;4.00;;
32152;SDS011;18656;50.580;11.392;2022-08-19T12:22:21;9.02;;;4.80;;
32152;SDS011;18656;50.580;11.392;2022-08-19T12:24:50;5.68;;;3.72;;
32152;SDS011;18656;50.580;11.392;2022-08-19T12:27:19;5.10;;;3.70;;
32152;SDS011;18656;50.580;11.392;2022-08-19T12:30:06;4.80;;;4.15;;
32152;SDS011;18656;50.580;11.392;2022-08-19T12:32:34;7.53;;;3.65;;
32152;SDS011;18656;50.580;11.392;2022-08-19T12:35:01;6.82;;;3.65;;
32152;SDS011;18656;50.580;11.392;2022-08-19T12:37:28;7.03;;;4.18;;
32152;SDS011;18656;50.580;11.392;2022-08-19T12:39:56;6.10;;;3.50;;
32152;SDS011;18656;50.580;11.392;2022-08-19T12:42:23;8.05;;;3.95;;
32152;SDS011;18656;50.580;11.392;2022-08-19T12:44:50;4.60;;;4.30;;
32152;SDS011;18656;50.580;11.392;2022-08-19T12:47:18;6.13;;;4.50;;
32152;SDS011;18656;50.580;11.392;2022-08-19T12:49:45;4.22;;;3.90;;
32152;SDS011;18656;50.580;11.392;2022-08-19T12:52:20;5.85;;;3.85;;
32152;SDS011;18656;50.580;11.392;2022-08-19T12:54:48;5.00;;;4.55;;
32152;SDS011;18656;50.580;11.392;2022-08-19T12:57:20;4.38;;;3.97;;
32152;SDS011;18656;50.580;11.392;2022-08-19T12:59:51;4.72;;;4.30;;
32152;SDS011;18656;50.580;11.392;2022-08-19T13:02:19;5.93;;;4.28;;
32152;SDS011;18656;50.580;11.392;2022-08-19T13:04:47;5.78;;;4.32;;
32152;SDS011;18656;50.580;11.392;2022-08-19T13:07:14;4.45;;;4.05;;
32152;SDS011;18656;50.580;11.392;2022-08-19T13:09:41;3.90;;;3.70;;
32152;SDS011;18656;50.580;11.392;2022-08-19T13:12:09;4.85;;;4.45;;
32152;SDS011;18656;50.580;11.392;2022-08-19T13:14:39;5.38;;;4.88;;
32152;SDS011;18656;50.580;11.392;2022-08-19T13:17:07;5.40;;;4.50;;
32152;SDS011;18656;50.580;11.392;2022-08-19T13:19:36;5.75;;;4.82;;
32152;SDS011;18656;50.580;11.392;2022-08-19T13:22:03;4.85;;;4.20;;
32152;SDS011;18656;50.580;11.392;2022-08-19T13:24:40;4.22;;;3.85;;
32152;SDS011;18656;50.580;11.392;2022-08-19T13:27:12;5.45;;;4.95;;
32152;SDS011;18656;50.580;11.392;2022-08-19T13:29:40;4.93;;;4.53;;
32152;SDS011;18656;50.580;11.392;2022-08-19T13:32:26;4.25;;;3.95;;
32152;SDS011;18656;50.580;11.392;2022-08-19T13:35:14;5.07;;;4.65;;
32152;SDS011;18656;50.580;11.392;2022-08-19T13:37:42;7.60;;;4.43;;
32152;SDS011;18656;50.580;11.392;2022-08-19T13:40:17;8.13;;;4.50;;
32152;SDS011;18656;50.580;11.392;2022-08-19T13:42:45;5.80;;;4.03;;
32152;SDS011;18656;50.580;11.392;2022-08-19T13:45:14;3.78;;;3.53;;
32152;SDS011;18656;50.580;11.392;2022-08-19T13:47:42;5.60;;;4.68;;
32152;SDS011;18656;50.580;11.392;2022-08-19T13:50:12;6.18;;;4.40;;
32152;SDS011;18656;50.580;11.392;2022-08-19T13:52:40;4.97;;;4.47;;
32152;SDS011;18656;50.580;11.392;2022-08-19T13:55:07;5.65;;;4.20;;
32152;SDS011;18656;50.580;11.392;2022-08-19T13:57:35;7.65;;;4.50;;
32152;SDS011;18656;50.580;11.392;2022-08-19T14:00:06;4.43;;;4.13;;
32152;SDS011;18656;50.580;11.392;2022-08-19T14:02:36;4.90;;;4.50;;
32152;SDS011;18656;50.580;11.392;2022-08-19T14:05:08;4.68;;;3.85;;
32152;SDS011;18656;50.580;11.392;2022-08-19T14:07:35;5.85;;;3.67;;
32152;SDS011;18656;50.580;11.392;2022-08-19T14:10:03;4.50;;;4.10;;
32152;SDS011;18656;50.580;11.392;2022-08-19T14:12:32;8.15;;;5.70;;
32152;SDS011;18656;50.580;11.392;2022-08-19T14:14:59;4.50;;;4.13;;
32152;SDS011;18656;50.580;11.392;2022-08-19T14:17:26;6.93;;;4.05;;
32152;SDS011;18656;50.580;11.392;2022-08-19T14:19:58;5.50;;;4.40;;
32152;SDS011;18656;50.580;11.392;2022-08-19T14:22:37;5.15;;;3.70;;
32152;SDS011;18656;50.580;11.392;2022-08-19T14:25:05;5.38;;;3.65;;
32152;SDS011;18656;50.580;11.392;2022-08-19T14:27:33;5.43;;;4.65;;
32152;SDS011;18656;50.580;11.392;2022-08-19T14:30:01;6.68;;;4.90;;
32152;SDS011;18656;50.580;11.392;2022-08-19T14:32:28;6.40;;;4.50;;
32152;SDS011;18656;50.580;11.392;2022-08-19T14:34:56;9.55;;;5.55;;
32152;SDS011;18656;50.580;11.392;2022-08-19T14:37:23;5.00;;;4.57;;
32152;SDS011;18656;50.580;11.392;2022-08-19T14:39:50;5.03;;;4.57;;
32152;SDS011;18656;50.580;11.392;2022-08-19T14:42:18;4.40;;;3.97;;
32152;SDS011;18656;50.580;11.392;2022-08-19T14:44:46;4.18;;;3.90;;
32152;SDS011;18656;50.580;11.392;2022-08-19T14:47:13;4.57;;;3.75;;